sensor_id;sensor_type;location;lat;lon;timestamp;temperature;humidity
55673;DHT22;41554;45.366;20.400;2023-04-23T14:04:40;640.20;1075.20
55673;DHT22;41554;45.366;20.400;2023-04-23T14:07:06;640.10;1075.20
55673;DHT22;41554;45.366;20.400;2023-04-23T14:09:31;615.20;1024.00
55673;DHT22;41554;45.366;20.400;2023-04-23T14:11:57;615.10;1024.00
55673;DHT22;41554;45.366;20.400;2023-04-23T14:14:23;615.10;1049.60
55673;DHT22;41554;45.366;20.400;2023-04-23T14:16:48;615.00;1049.60
55673;DHT22;41554;45.366;20.400;2023-04-23T14:19:14;615.10;1049.60
55673;DHT22;41554;45.366;20.400;2023-04-23T14:21:40;615.10;1049.60
55673;DHT22;41554;45.366;20.400;2023-04-23T14:26:42;615.00;1049.60
55673;DHT22;41554;45.366;20.400;2023-04-23T14:29:17;615.10;1075.20
55673;DHT22;41554;45.366;20.400;2023-04-23T14:31:45;615.10;1075.20
55673;DHT22;41554;45.366;20.400;2023-04-23T14:34:11;615.10;1075.20
55673;DHT22;41554;45.366;20.400;2023-04-23T14:36:37;615.10;1075.20
55673;DHT22;41554;45.366;20.400;2023-04-23T14:39:03;615.10;1100.80
55673;DHT22;41554;45.366;20.400;2023-04-23T14:41:32;614.80;1075.20
55673;DHT22;41554;45.366;20.400;2023-04-23T14:43:59;614.80;1075.20
55673;DHT22;41554;45.366;20.400;2023-04-23T14:46:25;614.60;1100.80
55673;DHT22;41554;45.366;20.400;2023-04-23T14:48:51;614.50;1100.80
55673;DHT22;41554;45.366;20.400;2023-04-23T14:51:17;614.50;1100.80
55673;DHT22;41554;45.366;20.400;2023-04-23T14:53:43;614.40;1126.40
55673;DHT22;41554;45.366;20.400;2023-04-23T14:56:08;589.70;1100.80
55673;DHT22;41554;45.366;20.400;2023-04-23T14:58:34;614.50;1152.00
55673;DHT22;41554;45.366;20.400;2023-04-23T15:01:00;614.70;1126.40
55673;DHT22;41554;45.366;20.400;2023-04-23T15:03:26;614.90;1126.40
55673;DHT22;41554;45.366;20.400;2023-04-23T15:05:52;615.00;1177.60
55673;DHT22;41554;45.366;20.400;2023-04-23T15:08:19;615.10;1152.00
55673;DHT22;41554;45.366;20.400;2023-04-23T15:10:45;615.00;1152.00
55673;DHT22;41554;45.366;20.400;2023-04-23T15:15:49;615.00;1126.40
55673;DHT22;41554;45.366;20.400;2023-04-23T15:18:17;614.60;1100.80
55673;DHT22;41554;45.366;20.400;2023-04-23T15:20:43;614.60;1100.80
55673;DHT22;41554;45.366;20.400;2023-04-23T15:23:09;614.60;1126.40
55673;DHT22;41554;45.366;20.400;2023-04-23T15:25:35;614.50;1100.80
55673;DHT22;41554;45.366;20.400;2023-04-23T15:28:02;589.50;1100.80
55673;DHT22;41554;45.366;20.400;2023-04-23T15:30:28;589.50;1126.40
55673;DHT22;41554;45.366;20.400;2023-04-23T15:32:54;589.50;1126.40
55673;DHT22;41554;45.366;20.400;2023-04-23T15:35:27;589.60;1100.80
55673;DHT22;41554;45.366;20.400;2023-04-23T15:37:53;589.60;1177.60
55673;DHT22;41554;45.366;20.400;2023-04-23T15:40:18;589.60;1203.20
55673;DHT22;41554;45.366;20.400;2023-04-23T15:42:44;589.50;1203.20
55673;DHT22;41554;45.366;20.400;2023-04-23T15:45:10;589.50;1228.80
55673;DHT22;41554;45.366;20.400;2023-04-23T15:47:37;589.50;1177.60
55673;DHT22;41554;45.366;20.400;2023-04-23T15:50:04;589.50;1177.60
55673;DHT22;41554;45.366;20.400;2023-04-23T15:52:30;589.50;1203.20
